Aviation Digital Data Service (ADDS)

Output produced by METARs form (0358 UTC 23 September 2017)
found at http://www.aviationweather.gov/adds/metars/
 
METAR text: KLVK 230353Z 27007KT 10SM CLR 14/08 A2988 RMK AO2 SLP117 T01440078
Conditions at: KLVK (LIVERMORE , CA, US) observed 0353 UTC 23 September 2017
Temperature: 14.4°C (58°F)
Dewpoint: 7.8°C (46°F) [RH = 65%]
Pressure (altimeter): 29.88 inches Hg (1011.9 mb)
[Sea-level pressure: 1011.7 mb]
Winds: from the W (270 degrees) at 8 MPH (7 knots; 3.6 m/s)
Visibility: 10 or more miles (16+ km)
Ceiling: at least 12,000 feet AGL
Clouds: sky clear below 12,000 feet AGL
Weather: no significant weather observed at this time

METAR text: KLVK 230253Z 25005KT 10SM CLR 17/08 A2987 RMK AO2 SLP113 T01670078 53006
Conditions at: KLVK (LIVERMORE , CA, US) observed 0253 UTC 23 September 2017
Temperature: 16.7°C (62°F)
Dewpoint: 7.8°C (46°F) [RH = 56%]
Pressure (altimeter): 29.87 inches Hg (1011.6 mb)
[Sea-level pressure: 1011.3 mb]
Winds: from the WSW (250 degrees) at 6 MPH (5 knots; 2.6 m/s)
Visibility: 10 or more miles (16+ km)
Ceiling: at least 12,000 feet AGL
Clouds: sky clear below 12,000 feet AGL
Weather: no significant weather observed at this time

METAR text: KLVK 230153Z AUTO 28007KT 10SM CLR 19/08 A2986 RMK AO2 SLP109 T01890078
Conditions at: KLVK (LIVERMORE , CA, US) observed 0153 UTC 23 September 2017
Temperature: 18.9°C (66°F)
Dewpoint: 7.8°C (46°F) [RH = 48%]
Pressure (altimeter): 29.86 inches Hg (1011.3 mb)
[Sea-level pressure: 1010.9 mb]
Winds: from the W (280 degrees) at 8 MPH (7 knots; 3.6 m/s)
Visibility: 10 or more miles (16+ km)
Ceiling: at least 12,000 feet AGL
Clouds: sky clear below 12,000 feet AGL
Weather: automated observation with no human augmentation;
there may or may not be significant weather present at this time

METAR text: KLVK 230053Z AUTO 29010KT 10SM CLR 21/07 A2985 RMK AO2 SLP107 T02060072
Conditions at: KLVK (LIVERMORE , CA, US) observed 0053 UTC 23 September 2017
Temperature: 20.6°C (69°F)
Dewpoint: 7.2°C (45°F) [RH = 42%]
Pressure (altimeter): 29.85 inches Hg (1010.9 mb)
[Sea-level pressure: 1010.7 mb]
Winds: from the WNW (290 degrees) at 12 MPH (10 knots; 5.2 m/s)
Visibility: 10 or more miles (16+ km)
Ceiling: at least 12,000 feet AGL
Clouds: sky clear below 12,000 feet AGL
Weather: automated observation with no human augmentation;
there may or may not be significant weather present at this time

METAR text: KLVK 222353Z 27011KT 10SM CLR 22/06 A2985 RMK AO2 SLP106 T02220056 10228 20167 56010
Conditions at: KLVK (LIVERMORE , CA, US) observed 2353 UTC 22 September 2017
Temperature: 22.2°C (72°F)
Dewpoint: 5.6°C (42°F) [RH = 34%]
Pressure (altimeter): 29.85 inches Hg (1010.9 mb)
[Sea-level pressure: 1010.6 mb]
Winds: from the W (270 degrees) at 13 MPH (11 knots; 5.7 m/s)
Visibility: 10 or more miles (16+ km)
Ceiling: at least 12,000 feet AGL
Clouds: sky clear below 12,000 feet AGL
Weather: no significant weather observed at this time

METAR text: KLVK 222253Z VRB05KT 10SM CLR 22/05 A2985 RMK AO2 SLP107 T02220050
Conditions at: KLVK (LIVERMORE , CA, US) observed 2253 UTC 22 September 2017
Temperature: 22.2°C (72°F)
Dewpoint: 5.0°C (41°F) [RH = 33%]
Pressure (altimeter): 29.85 inches Hg (1010.9 mb)
[Sea-level pressure: 1010.7 mb]
Winds: variable direction winds at 6 MPH (5 knots; 2.6 m/s)
Visibility: 10 or more miles (16+ km)
Ceiling: at least 12,000 feet AGL
Clouds: sky clear below 12,000 feet AGL
Weather: no significant weather observed at this time

METAR text: KLVK 222153Z VRB05KT 10SM CLR 21/05 A2987 RMK AO2 SLP112 T02110050
Conditions at: KLVK (LIVERMORE , CA, US) observed 2153 UTC 22 September 2017
Temperature: 21.1°C (70°F)
Dewpoint: 5.0°C (41°F) [RH = 35%]
Pressure (altimeter): 29.87 inches Hg (1011.6 mb)
[Sea-level pressure: 1011.2 mb]
Winds: variable direction winds at 6 MPH (5 knots; 2.6 m/s)
Visibility: 10 or more miles (16+ km)
Ceiling: at least 12,000 feet AGL
Clouds: sky clear below 12,000 feet AGL
Weather: no significant weather observed at this time

METAR text: KLVK 222053Z 29006KT 10SM FEW050 22/07 A2988 RMK AO2 SLP116 T02170067 58015
Conditions at: KLVK (LIVERMORE , CA, US) observed 2053 UTC 22 September 2017
Temperature: 21.7°C (71°F)
Dewpoint: 6.7°C (44°F) [RH = 38%]
Pressure (altimeter): 29.88 inches Hg (1011.9 mb)
[Sea-level pressure: 1011.6 mb]
Winds: from the WNW (290 degrees) at 7 MPH (6 knots; 3.1 m/s)
Visibility: 10 or more miles (16+ km)
Ceiling: at least 12,000 feet AGL
Clouds: few clouds at 5000 feet AGL
Weather: no significant weather observed at this time